Historique des stations

Station météo de Bazoches-les-Gallerandes

Altitude de la station : 134 m







Données météorologiques pour le 24/09/2022
Date
Heure
Températures Humidité Point de rosée Vitesse
du vent
Direction Rafales Windchill Pression Pluviométrie
Cumul
Date
Heure
Températures Humidité Point de rosée Vitesse
du vent
Direction Rafales Windchill Pression Pluviométrie
Cumul
24/09/2022 19:0014.8 °C86 %12.5 °C3 km/h10 km/h14.81013 hPa1.8 mm
24/09/2022 18:4015.1 °C85 %12.6 °C3 km/h10 km/h15.11013 hPa1.8 mm
24/09/2022 18:3015.4 °C86 %13.1 °C4 km/h11 km/h15.41012 hPa1.8 mm
24/09/2022 18:1015.6 °C84 %12.9 °C4 km/h10 km/h15.61013 hPa1.8 mm
24/09/2022 18:0015.7 °C85 %13.2 °C4 km/h11 km/h15.71013 hPa1.8 mm
24/09/2022 17:4015.9 °C86 %13.5 °C4 km/hNNE11 km/h15.91012 hPa1.8 mm
24/09/2022 17:3016.0 °C85 %13.5 °C4 km/h13 km/h16.01012 hPa1.8 mm
24/09/2022 17:1016.2 °C85 %13.6 °C5 km/h13 km/h16.21012 hPa1.8 mm
24/09/2022 17:0016.3 °C85 %13.7 °C6 km/h15 km/h16.31012 hPa1.8 mm
24/09/2022 16:4016.3 °C86 %13.9 °C5 km/hNNE15 km/h16.31012 hPa1.8 mm
24/09/2022 16:3016.6 °C83 %13.7 °C4 km/hNNE13 km/h16.61012 hPa1.8 mm
24/09/2022 16:1016.9 °C82 %13.8 °C2 km/hNNE11 km/h16.91012 hPa1.8 mm
24/09/2022 16:0017.0 °C78 %13.1 °C1 km/h6 km/h17.01013 hPa1.8 mm
24/09/2022 15:4016.5 °C82 %13.4 °C1 km/hONO8 km/h16.51013 hPa1.8 mm
24/09/2022 15:3016.7 °C78 %12.9 °C1 km/hONO6 km/h16.71013 hPa1.8 mm
24/09/2022 15:1017.4 °C76 %13.1 °C1 km/hSO5 km/h17.41013 hPa1.8 mm
24/09/2022 15:0017.5 °C76 %13.2 °C1 km/hSSO3 km/h17.51013 hPa1.8 mm
24/09/2022 14:4016.5 °C82 %13.4 °C2 km/hSSO6 km/h16.51013 hPa1.8 mm
24/09/2022 14:3015.8 °C85 %13.3 °C2 km/hO5 km/h15.81013 hPa1.8 mm
24/09/2022 14:1015.6 °C86 %13.3 °C2 km/hO8 km/h15.61013 hPa1.8 mm
24/09/2022 14:0015.3 °C89 %13.5 °C2 km/hO5 km/h15.31013 hPa1.8 mm
24/09/2022 13:4015.1 °C90 %13.4 °C2 km/hO8 km/h15.11013 hPa1.8 mm
24/09/2022 13:3014.8 °C90 %13.2 °C2 km/hO10 km/h14.81013 hPa1.8 mm
24/09/2022 13:1014.9 °C88 %12.9 °C2 km/hOSO6 km/h14.91013 hPa1.6 mm
24/09/2022 13:0014.9 °C89 %13.1 °C2 km/hSO5 km/h14.91013 hPa1.6 mm
24/09/2022 12:4014.8 °C88 %12.9 °C3 km/hOSO10 km/h14.81013 hPa1.6 mm
24/09/2022 12:3014.4 °C89 %12.7 °C3 km/hOSO10 km/h14.41013 hPa1.4 mm
24/09/2022 12:1014.7 °C88 %12.7 °C3 km/hSO8 km/h14.71013 hPa1.4 mm
24/09/2022 12:0014.8 °C89 %13.0 °C3 km/hSO6 km/h14.81013 hPa1.4 mm
24/09/2022 11:4014.6 °C88 %12.6 °C3 km/hSO6 km/h14.61013 hPa1.4 mm
24/09/2022 11:3014.3 °C88 %12.4 °C3 km/hSSO10 km/h14.31013 hPa1.4 mm
24/09/2022 11:1014.1 °C90 %12.4 °C2 km/hSO8 km/h14.11013 hPa1.4 mm
24/09/2022 11:0013.8 °C90 %12.2 °C2 km/hOSO5 km/h13.81013 hPa1.4 mm
24/09/2022 10:4013.7 °C90 %12.1 °C2 km/hOSO6 km/h13.71013 hPa1.2 mm
24/09/2022 10:3013.5 °C91 %12.1 °C2 km/h6 km/h13.51013 hPa1.2 mm
24/09/2022 10:1013.3 °C93 %12.2 °C2 km/hOSO8 km/h13.31013 hPa1.2 mm
24/09/2022 10:0012.9 °C94 %11.9 °C1 km/hOSO6 km/h12.91013 hPa1.2 mm
24/09/2022 09:4012.6 °C94 %11.6 °C1 km/hOSO5 km/h12.61013 hPa1.2 mm
24/09/2022 09:3012.4 °C94 %11.5 °C-OSO6 km/h12.41013 hPa1.2 mm
24/09/2022 09:1012.3 °C95 %11.6 °C-OSO5 km/h12.31013 hPa1.0 mm
24/09/2022 09:0012.2 °C95 %11.4 °C-OSO3 km/h12.21013 hPa1.0 mm
24/09/2022 08:4012.1 °C95 %11.3 °C-SO3 km/h12.11013 hPa1.0 mm
24/09/2022 08:3011.9 °C94 %11.0 °C-OSO3 km/h11.91013 hPa1.0 mm
24/09/2022 07:4011.9 °C94 %11.0 °C-OSO2 km/h11.91012 hPa0.8 mm
24/09/2022 07:3011.9 °C94 %11.0 °C-OSO3 km/h11.91012 hPa0.8 mm
24/09/2022 06:4011.9 °C93 %10.8 °C-SO2 km/h11.91012 hPa0.6 mm
24/09/2022 06:3011.9 °C93 %10.8 °C-SO2 km/h11.91012 hPa0.6 mm
24/09/2022 05:1012.7 °C88 %10.7 °C-O3 km/h12.71012 hPa0.0 mm
24/09/2022 04:4012.7 °C87 %10.6 °C---12.71013 hPa0.0 mm
24/09/2022 04:3012.8 °C87 %10.7 °C---12.81013 hPa0.0 mm
24/09/2022 03:4013.2 °C86 %10.9 °C-2 km/h13.21013 hPa0.0 mm
24/09/2022 03:0013.3 °C84 %10.6 °C---13.31013 hPa0.0 mm
24/09/2022 02:4013.5 °C84 %10.8 °C---13.51013 hPa0.0 mm


Minima :

Température : 11.9 °C
Humidité : 76 %
Point de rosée : 10.6 °C
Vent moyen : 1 km/h
Windchill : 11.9
Pression atm. : 1012 hPa
Maxima :

Température : 17.5 °C
Humidité : 95 %
Point de rosée : 13.9 °C
Vent moyen : 6 km/h
Windchill : 17.5
Pression atm. : 1013 hPa
Rafales max : 15 km/h
Cumul de pluie sur 24H : 1.8 mm

Bazoches les gallerandes est une commune du département Loiret (45).
La station météorologique du réseau de l'association la plus proche de Bazoches-les-Gallerandes est celle de Boisseaux



Icône Facebook Association Météo Centre Icône Twitter Association Météo Centre Icône Chaîne Youtube Association Météo Centre Icône contact Association Météo Centre Icône Insta Association Météo Centre